Time;durP1;ratioP1;P1;durP2;ratioP2;P2;SDS_P1;SDS_P2;PMS_P1;PMS_P2;Temp;Humidity;BMP_temperature;BMP_pressure;BME280_temperature;BME280_humidity;BME280_pressure;Samples;Min_cycle;Max_cycle;Signal;HPM_P1;HPM_P2
2023/08/18 00:01:30;;;;;;;7.90;0.53;;;;;;;;;;5032578;28;20420;-79
2023/08/18 00:03:59;;;;;;;1.57;0.20;;;;;;;;;;5032570;28;20431;-80
2023/08/18 00:06:25;;;;;;;2.93;0.20;;;;;;;;;;5032670;28;20419;-80
2023/08/18 00:08:51;;;;;;;1.87;0.40;;;;;;;;;;5034545;28;20544;-81
2023/08/18 00:11:16;;;;;;;1.17;0.20;;;;;;;;;;5078652;28;20178;-80
2023/08/18 00:13:42;;;;;;;2.20;0.50;;;;;;;;;;5079316;28;20408;-80
2023/08/18 00:16:08;;;;;;;2.20;0.30;;;;;;;;;;5078067;28;20516;-80
2023/08/18 00:18:34;;;;;;;1.40;0.20;;;;;;;;;;5078375;28;20237;-80
2023/08/18 00:21:00;;;;;;;2.77;0.30;;;;;;;;;;5079010;28;20429;-80
2023/08/18 00:23:26;;;;;;;2.10;0.30;;;;;;;;;;5063341;28;20264;-80
2023/08/18 00:25:52;;;;;;;0.80;0.20;;;;;;;;;;5051593;28;20184;-79
2023/08/18 00:28:18;;;;;;;5.33;0.30;;;;;;;;;;5059184;28;20515;-81
2023/08/18 00:30:44;;;;;;;2.13;0.20;;;;;;;;;;5058020;28;20441;-79
2023/08/18 00:33:09;;;;;;;1.43;0.30;;;;;;;;;;5058051;28;20173;-83
2023/08/18 00:35:35;;;;;;;2.77;0.40;;;;;;;;;;5059213;28;20234;-79
2023/08/18 00:38:01;;;;;;;1.47;0.30;;;;;;;;;;5059227;28;20506;-80
2023/08/18 00:40:27;;;;;;;1.70;0.53;;;;;;;;;;5057727;28;20181;-80
2023/08/18 00:42:53;;;;;;;2.20;0.30;;;;;;;;;;5059298;28;20504;-79
2023/08/18 00:45:19;;;;;;;1.07;0.33;;;;;;;;;;5058063;28;20180;-80
2023/08/18 00:47:45;;;;;;;2.43;0.40;;;;;;;;;;5059145;28;20462;-81
2023/08/18 00:50:12;;;;;;;1.67;0.40;;;;;;;;;;5059227;28;20413;-82
2023/08/18 00:52:38;;;;;;;1.90;0.20;;;;;;;;;;5059152;28;20179;-79
2023/08/18 00:55:05;;;;;;;1.17;0.63;;;;;;;;;;5057569;28;20511;-79
2023/08/18 00:57:31;;;;;;;3.50;0.30;;;;;;;;;;5059197;28;20416;-79
2023/08/18 00:59:58;;;;;;;1.17;0.20;;;;;;;;;;5059149;28;20420;-79
2023/08/18 01:02:24;;;;;;;1.23;0.30;;;;;;;;;;5058867;28;20461;-79
2023/08/18 01:04:50;;;;;;;4.83;1.40;;;;;;;;;;5059025;28;20416;-81
2023/08/18 01:07:16;;;;;;;2.73;0.40;;;;;;;;;;5052367;28;20554;-79
2023/08/18 01:09:42;;;;;;;2.73;0.53;;;;;;;;;;5047571;28;20617;-81
2023/08/18 01:12:14;;;;;;;3.73;0.40;;;;;;;;;;5054032;28;20176;-81
2023/08/18 01:15:04;;;;;;;3.10;0.70;;;;;;;;;;5057034;28;20504;-81
2023/08/18 01:17:37;;;;;;;2.30;0.67;;;;;;;;;;5055583;28;20515;-79
2023/08/18 01:20:05;;;;;;;2.93;0.80;;;;;;;;;;5054237;28;20453;-79
2023/08/18 01:22:32;;;;;;;2.20;0.40;;;;;;;;;;5053104;28;20923;-81
2023/08/18 01:25:01;;;;;;;2.40;0.50;;;;;;;;;;5054781;28;20421;-79
2023/08/18 01:27:31;;;;;;;4.57;0.97;;;;;;;;;;5055100;28;20452;-80
2023/08/18 01:29:57;;;;;;;3.83;0.40;;;;;;;;;;5052564;28;20419;-79
2023/08/18 01:32:30;;;;;;;1.77;0.20;;;;;;;;;;5052171;28;20438;-79
2023/08/18 01:34:56;;;;;;;3.13;0.63;;;;;;;;;;5051706;28;20484;-79
2023/08/18 01:37:22;;;;;;;2.10;0.60;;;;;;;;;;5051880;28;20914;-79
2023/08/18 01:39:49;;;;;;;3.73;0.50;;;;;;;;;;5053680;28;20422;-79
2023/08/18 01:42:15;;;;;;;1.90;0.33;;;;;;;;;;5054702;28;20472;-79
2023/08/18 01:44:41;;;;;;;4.23;0.50;;;;;;;;;;5054867;28;20412;-79
2023/08/18 01:47:07;;;;;;;1.30;0.70;;;;;;;;;;5054567;28;20417;-78
2023/08/18 01:49:33;;;;;;;1.53;0.60;;;;;;;;;;5054880;28;20528;-79
2023/08/18 01:51:59;;;;;;;1.57;0.70;;;;;;;;;;5054772;28;20175;-79
2023/08/18 01:54:25;;;;;;;3.37;0.63;;;;;;;;;;5054297;28;20536;-79
2023/08/18 01:56:51;;;;;;;4.37;0.60;;;;;;;;;;5054469;28;20174;-79
2023/08/18 01:59:17;;;;;;;5.80;0.60;;;;;;;;;;5054417;28;20892;-79
2023/08/18 02:01:43;;;;;;;5.00;0.97;;;;;;;;;;5053103;28;20177;-79
2023/08/18 02:04:08;;;;;;;2.70;0.40;;;;;;;;;;5054440;28;20229;-79
2023/08/18 02:06:35;;;;;;;2.50;0.33;;;;;;;;;;5054408;28;20180;-80
2023/08/18 02:09:01;;;;;;;4.57;0.90;;;;;;;;;;5052696;28;20567;-80
2023/08/18 02:11:27;;;;;;;1.77;0.50;;;;;;;;;;5049732;28;20430;-79
2023/08/18 02:13:52;;;;;;;1.77;0.50;;;;;;;;;;5053386;28;20443;-80
2023/08/18 02:16:18;;;;;;;5.20;0.67;;;;;;;;;;5054244;28;20256;-81
2023/08/18 02:18:45;;;;;;;3.20;1.17;;;;;;;;;;5054271;28;20183;-80
2023/08/18 02:21:10;;;;;;;3.70;0.73;;;;;;;;;;5054132;28;20810;-80
2023/08/18 02:23:36;;;;;;;2.03;0.67;;;;;;;;;;5053769;28;20812;-81
2023/08/18 02:26:04;;;;;;;4.53;1.10;;;;;;;;;;5054451;28;20197;-82
2023/08/18 02:28:30;;;;;;;3.23;0.83;;;;;;;;;;5053234;28;20269;-80
2023/08/18 02:31:03;;;;;;;3.17;0.70;;;;;;;;;;5054443;28;20894;-79
2023/08/18 02:33:30;;;;;;;1.63;0.30;;;;;;;;;;5053232;28;20413;-80
2023/08/18 02:35:56;;;;;;;2.20;0.50;;;;;;;;;;5054371;28;20412;-80
2023/08/18 02:38:22;;;;;;;2.73;0.60;;;;;;;;;;5053047;28;20426;-81
2023/08/18 02:40:48;;;;;;;4.20;0.57;;;;;;;;;;5053756;28;20508;-80
2023/08/18 02:43:14;;;;;;;2.33;0.57;;;;;;;;;;5054222;28;20411;-80
2023/08/18 02:45:39;;;;;;;2.20;0.67;;;;;;;;;;5054208;28;20207;-80
2023/08/18 02:48:05;;;;;;;1.93;0.70;;;;;;;;;;5052839;28;20199;-80
2023/08/18 02:50:31;;;;;;;1.63;0.50;;;;;;;;;;5054077;28;20631;-80
2023/08/18 02:53:03;;;;;;;3.37;0.90;;;;;;;;;;5054097;28;20498;-79
2023/08/18 02:55:29;;;;;;;1.73;0.70;;;;;;;;;;5053655;28;20173;-80
2023/08/18 02:57:55;;;;;;;5.97;1.50;;;;;;;;;;5053905;28;20417;-80
2023/08/18 03:00:21;;;;;;;3.10;0.53;;;;;;;;;;5053820;28;20414;-80
2023/08/18 03:02:47;;;;;;;2.43;0.77;;;;;;;;;;5053685;28;20708;-80
2023/08/18 03:05:13;;;;;;;1.83;0.97;;;;;;;;;;5053770;28;20417;-80
2023/08/18 03:07:39;;;;;;;4.00;0.97;;;;;;;;;;5053581;28;20824;-79
2023/08/18 03:10:05;;;;;;;1.60;0.93;;;;;;;;;;5052112;28;20409;-79
2023/08/18 03:12:31;;;;;;;1.50;0.80;;;;;;;;;;5053599;28;20177;-79
2023/08/18 03:14:57;;;;;;;4.80;0.63;;;;;;;;;;5053604;28;20426;-79
2023/08/18 03:17:23;;;;;;;6.10;1.80;;;;;;;;;;5053481;28;20177;-80
2023/08/18 03:19:49;;;;;;;3.40;0.80;;;;;;;;;;5053502;28;20199;-79
2023/08/18 03:22:15;;;;;;;3.13;1.53;;;;;;;;;;5053434;28;20193;-79
2023/08/18 03:24:41;;;;;;;2.20;0.57;;;;;;;;;;5053128;28;20523;-79
2023/08/18 03:27:07;;;;;;;6.57;1.40;;;;;;;;;;5053348;28;20170;-79
2023/08/18 03:29:33;;;;;;;3.17;1.70;;;;;;;;;;5053353;28;20181;-79
2023/08/18 03:31:58;;;;;;;2.43;1.37;;;;;;;;;;5053327;28;20174;-79
2023/08/18 03:34:25;;;;;;;5.37;2.10;;;;;;;;;;5053221;28;20415;-80
2023/08/18 03:36:51;;;;;;;3.37;1.23;;;;;;;;;;5053232;28;20170;-80
2023/08/18 03:39:17;;;;;;;4.53;1.30;;;;;;;;;;5052934;28;20994;-79
2023/08/18 03:41:43;;;;;;;4.17;1.03;;;;;;;;;;5052998;28;20787;-80
2023/08/18 03:44:08;;;;;;;4.37;1.50;;;;;;;;;;5052733;28;20191;-79
2023/08/18 03:46:34;;;;;;;3.87;1.50;;;;;;;;;;5053017;28;20463;-81
2023/08/18 03:49:00;;;;;;;4.90;1.93;;;;;;;;;;5052921;28;20474;-80
2023/08/18 03:51:26;;;;;;;5.30;1.40;;;;;;;;;;5051662;28;20416;-80
2023/08/18 03:53:52;;;;;;;6.40;1.83;;;;;;;;;;5052542;28;20845;-80
2023/08/18 03:56:18;;;;;;;4.03;2.47;;;;;;;;;;5052939;28;20925;-79
2023/08/18 03:58:44;;;;;;;4.43;1.70;;;;;;;;;;5052914;28;20416;-80
2023/08/18 04:01:10;;;;;;;5.27;1.87;;;;;;;;;;5052827;28;20418;-79
2023/08/18 04:03:36;;;;;;;2.50;1.07;;;;;;;;;;5052653;28;20469;-79
2023/08/18 04:06:03;;;;;;;2.60;1.60;;;;;;;;;;5052821;28;20271;-78
2023/08/18 04:08:29;;;;;;;6.80;1.67;;;;;;;;;;5052377;28;20489;-78
2023/08/18 04:10:55;;;;;;;5.90;1.47;;;;;;;;;;5052824;28;21268;-78
2023/08/18 04:13:21;;;;;;;4.57;2.03;;;;;;;;;;5052765;28;20781;-78
2023/08/18 04:15:46;;;;;;;6.73;2.20;;;;;;;;;;5052808;28;20176;-78
2023/08/18 04:18:12;;;;;;;5.83;1.80;;;;;;;;;;5052637;28;20416;-80
2023/08/18 04:20:38;;;;;;;7.23;2.43;;;;;;;;;;5052656;28;20461;-80
2023/08/18 04:23:04;;;;;;;5.00;2.33;;;;;;;;;;5052631;28;20513;-80
2023/08/18 04:25:30;;;;;;;5.43;2.93;;;;;;;;;;5050779;28;20188;-82
2023/08/18 04:27:56;;;;;;;6.90;2.80;;;;;;;;;;5052518;28;20692;-82
2023/08/18 04:30:22;;;;;;;6.33;2.70;;;;;;;;;;5052669;28;20765;-78
2023/08/18 04:32:49;;;;;;;6.33;2.57;;;;;;;;;;5052581;28;20927;-79
2023/08/18 04:35:15;;;;;;;6.20;2.07;;;;;;;;;;5052587;28;20410;-79
2023/08/18 04:37:41;;;;;;;5.83;2.13;;;;;;;;;;5052580;28;20769;-79
2023/08/18 04:40:07;;;;;;;7.97;2.80;;;;;;;;;;5050959;28;20931;-79
2023/08/18 04:42:33;;;;;;;7.93;2.70;;;;;;;;;;5052548;28;20611;-80
2023/08/18 04:44:59;;;;;;;10.27;2.93;;;;;;;;;;5052510;28;20457;-79
2023/08/18 04:47:25;;;;;;;4.00;3.13;;;;;;;;;;5052382;28;20286;-79
2023/08/18 04:49:51;;;;;;;6.30;3.90;;;;;;;;;;5052153;28;20861;-79
2023/08/18 04:52:17;;;;;;;7.57;3.93;;;;;;;;;;5052364;28;20425;-79
2023/08/18 04:54:43;;;;;;;5.80;3.83;;;;;;;;;;5052147;28;20515;-79
2023/08/18 04:57:10;;;;;;;7.20;3.93;;;;;;;;;;5054300;28;20416;-79
2023/08/18 04:59:36;;;;;;;6.13;3.83;;;;;;;;;;5056213;28;20178;-78
2023/08/18 05:02:02;;;;;;;8.83;4.80;;;;;;;;;;5056009;28;20537;-78
2023/08/18 05:04:28;;;;;;;8.03;4.50;;;;;;;;;;5056013;28;20535;-81
2023/08/18 05:06:54;;;;;;;9.07;3.97;;;;;;;;;;5056104;28;20467;-79
2023/08/18 05:09:20;;;;;;;10.07;5.20;;;;;;;;;;5055559;28;20228;-80
2023/08/18 05:11:46;;;;;;;9.07;4.47;;;;;;;;;;5055958;28;20403;-80
2023/08/18 05:14:12;;;;;;;8.33;5.00;;;;;;;;;;5055906;28;20507;-81
2023/08/18 05:16:38;;;;;;;8.33;4.87;;;;;;;;;;5055798;28;20987;-78
2023/08/18 05:19:05;;;;;;;10.07;5.73;;;;;;;;;;5054514;28;20513;-79
2023/08/18 05:21:31;;;;;;;8.90;5.50;;;;;;;;;;5055697;28;20180;-79
2023/08/18 05:23:57;;;;;;;10.40;4.20;;;;;;;;;;5055356;28;20956;-80
2023/08/18 05:26:23;;;;;;;9.20;5.83;;;;;;;;;;5055680;28;20410;-80
2023/08/18 05:28:49;;;;;;;9.20;4.77;;;;;;;;;;5055431;28;20482;-79
2023/08/18 05:31:15;;;;;;;10.40;4.90;;;;;;;;;;5054296;28;20523;-80
2023/08/18 05:33:41;;;;;;;7.57;3.93;;;;;;;;;;5055477;28;20505;-79
2023/08/18 05:36:07;;;;;;;6.90;5.13;;;;;;;;;;5054231;28;20432;-80
2023/08/18 05:38:33;;;;;;;8.20;4.60;;;;;;;;;;5055112;28;20405;-78
2023/08/18 05:41:07;;;;;;;6.40;4.50;;;;;;;;;;5055405;28;20446;-80
2023/08/18 05:43:37;;;;;;;6.93;4.53;;;;;;;;;;5055308;28;20763;-79
2023/08/18 05:46:03;;;;;;;6.13;4.17;;;;;;;;;;5055340;28;20849;-79
2023/08/18 05:48:30;;;;;;;7.63;4.57;;;;;;;;;;5055102;28;20541;-79
2023/08/18 05:50:56;;;;;;;5.90;4.40;;;;;;;;;;5055090;28;20435;-79
2023/08/18 05:53:21;;;;;;;4.50;3.97;;;;;;;;;;5054813;28;20439;-79
2023/08/18 05:55:48;;;;;;;7.17;4.03;;;;;;;;;;5055054;28;20244;-79
2023/08/18 05:58:14;;;;;;;7.33;4.30;;;;;;;;;;5054981;28;20170;-79
2023/08/18 06:00:40;;;;;;;6.43;4.37;;;;;;;;;;5054851;28;20474;-79
2023/08/18 06:03:06;;;;;;;8.70;4.50;;;;;;;;;;5054738;28;20723;-81
2023/08/18 06:05:33;;;;;;;6.80;5.20;;;;;;;;;;5054939;28;20413;-80
2023/08/18 06:07:59;;;;;;;8.27;4.93;;;;;;;;;;5054152;28;20220;-81
2023/08/18 06:10:25;;;;;;;7.30;4.67;;;;;;;;;;5053499;28;20979;-80
2023/08/18 06:12:51;;;;;;;8.23;4.70;;;;;;;;;;5054688;28;20174;-81
2023/08/18 06:15:19;;;;;;;6.77;4.80;;;;;;;;;;5053498;28;20184;-81
2023/08/18 06:17:45;;;;;;;7.17;3.87;;;;;;;;;;5053935;28;20862;-80
2023/08/18 06:20:11;;;;;;;9.00;4.40;;;;;;;;;;5054160;28;20420;-79
2023/08/18 06:22:37;;;;;;;8.80;4.97;;;;;;;;;;5054055;28;20416;-79
2023/08/18 06:25:04;;;;;;;8.00;4.13;;;;;;;;;;5053653;28;20409;-79
2023/08/18 06:27:30;;;;;;;7.30;3.70;;;;;;;;;;5053926;28;20488;-80
2023/08/18 06:29:56;;;;;;;7.50;3.67;;;;;;;;;;5054012;28;20830;-81
2023/08/18 06:32:22;;;;;;;7.70;3.97;;;;;;;;;;5053958;28;20170;-83
2023/08/18 06:34:48;;;;;;;6.40;4.03;;;;;;;;;;5053972;28;20778;-81
2023/08/18 06:37:14;;;;;;;7.63;4.00;;;;;;;;;;5053896;28;20248;-81
2023/08/18 06:39:40;;;;;;;9.17;3.83;;;;;;;;;;5050781;28;20432;-81
2023/08/18 06:42:06;;;;;;;5.00;4.00;;;;;;;;;;5048524;28;20171;-80
2023/08/18 06:44:33;;;;;;;7.53;4.30;;;;;;;;;;5053478;28;20539;-80
2023/08/18 06:46:59;;;;;;;5.90;4.23;;;;;;;;;;5053645;28;20502;-80
2023/08/18 06:49:25;;;;;;;10.20;4.97;;;;;;;;;;5050764;28;20478;-81
2023/08/18 06:51:54;;;;;;;7.20;4.10;;;;;;;;;;5053543;28;20533;-83
2023/08/18 06:54:20;;;;;;;5.70;3.97;;;;;;;;;;5053167;28;20261;-82
2023/08/18 06:56:46;;;;;;;5.03;3.80;;;;;;;;;;5050817;28;20748;-81
2023/08/18 06:59:12;;;;;;;8.07;5.10;;;;;;;;;;5053504;28;20171;-82
2023/08/18 07:01:39;;;;;;;5.60;4.70;;;;;;;;;;5053160;28;20273;-82
2023/08/18 07:04:05;;;;;;;5.60;4.80;;;;;;;;;;5053309;28;20430;-82
2023/08/18 07:06:31;;;;;;;6.00;4.60;;;;;;;;;;5053212;28;20411;-82
2023/08/18 07:09:00;;;;;;;5.93;5.00;;;;;;;;;;5052773;28;20984;-82
2023/08/18 07:11:26;;;;;;;9.20;5.13;;;;;;;;;;5050560;28;20406;-82
2023/08/18 07:13:52;;;;;;;6.50;5.00;;;;;;;;;;5052970;28;20414;-83
2023/08/18 07:16:18;;;;;;;7.10;4.53;;;;;;;;;;5053014;28;20420;-89
2023/08/18 07:18:44;;;;;;;7.10;4.87;;;;;;;;;;5051395;28;20416;-82
2023/08/18 07:21:10;;;;;;;7.43;5.30;;;;;;;;;;5051461;28;20608;-82
2023/08/18 07:23:36;;;;;;;5.83;5.17;;;;;;;;;;5052736;28;20948;-83
2023/08/18 07:26:03;;;;;;;6.27;5.03;;;;;;;;;;5053040;28;20231;-82
2023/08/18 07:28:29;;;;;;;5.93;4.77;;;;;;;;;;5052849;28;20205;-82
2023/08/18 07:30:55;;;;;;;7.57;6.20;;;;;;;;;;5052959;28;20503;-82
2023/08/18 07:33:20;;;;;;;7.20;4.17;;;;;;;;;;5052724;28;20509;-81
2023/08/18 07:35:47;;;;;;;7.77;5.87;;;;;;;;;;5052776;28;20300;-82
2023/08/18 07:38:12;;;;;;;7.13;5.97;;;;;;;;;;5049719;28;20537;-82
2023/08/18 07:40:38;;;;;;;6.90;5.80;;;;;;;;;;5052791;28;20418;-83
2023/08/18 07:43:04;;;;;;;9.10;5.30;;;;;;;;;;5051437;28;20779;-82
2023/08/18 07:45:33;;;;;;;6.33;5.63;;;;;;;;;;5052686;28;20264;-82
2023/08/18 07:47:59;;;;;;;7.60;5.37;;;;;;;;;;5052096;28;20482;-83
2023/08/18 07:50:25;;;;;;;8.40;5.50;;;;;;;;;;5052560;28;20403;-82
2023/08/18 07:52:51;;;;;;;5.97;5.37;;;;;;;;;;5052124;28;20413;-81
2023/08/18 07:55:20;;;;;;;9.07;5.33;;;;;;;;;;5051308;28;20408;-82
2023/08/18 07:57:46;;;;;;;5.70;5.10;;;;;;;;;;5052507;28;20412;-81
2023/08/18 08:00:16;;;;;;;6.43;5.13;;;;;;;;;;5052408;28;20767;-83
2023/08/18 08:02:42;;;;;;;9.97;7.30;;;;;;;;;;5052314;28;20301;-82
2023/08/18 08:05:08;;;;;;;8.00;6.40;;;;;;;;;;5052353;28;20417;-82
2023/08/18 08:07:34;;;;;;;7.27;5.10;;;;;;;;;;5052295;28;20458;-84
2023/08/18 08:10:04;;;;;;;9.53;5.43;;;;;;;;;;5052225;28;20744;-83
2023/08/18 08:12:34;;;;;;;7.50;5.80;;;;;;;;;;5052242;28;20423;-82
2023/08/18 08:15:00;;;;;;;7.93;5.53;;;;;;;;;;5052344;28;20430;-81
2023/08/18 08:17:29;;;;;;;5.80;5.23;;;;;;;;;;5052403;28;20427;-81
2023/08/18 08:19:56;;;;;;;7.90;5.20;;;;;;;;;;5050038;28;20740;-82
2023/08/18 08:22:22;;;;;;;6.77;4.80;;;;;;;;;;5052343;28;20921;-83
2023/08/18 08:24:50;;;;;;;6.63;4.83;;;;;;;;;;5051902;28;20502;-83
2023/08/18 08:27:16;;;;;;;6.07;5.47;;;;;;;;;;5052108;28;20941;-82
2023/08/18 08:29:42;;;;;;;7.83;5.47;;;;;;;;;;5052214;28;20410;-82
2023/08/18 08:32:08;;;;;;;6.73;6.23;;;;;;;;;;5055836;28;20426;-84
2023/08/18 08:34:34;;;;;;;7.00;5.90;;;;;;;;;;5056297;28;20409;-83
2023/08/18 08:37:00;;;;;;;8.00;5.63;;;;;;;;;;5055033;28;20933;-83
2023/08/18 08:39:28;;;;;;;7.00;6.30;;;;;;;;;;5054503;28;20179;-83
2023/08/18 08:41:54;;;;;;;9.93;6.30;;;;;;;;;;5053680;28;20268;-82
2023/08/18 08:44:20;;;;;;;6.97;5.80;;;;;;;;;;5056093;28;20949;-82
2023/08/18 08:46:49;;;;;;;6.43;5.87;;;;;;;;;;5055978;28;20902;-83
2023/08/18 08:49:16;;;;;;;6.27;5.63;;;;;;;;;;5052793;28;20233;-82
2023/08/18 08:51:44;;;;;;;6.80;6.10;;;;;;;;;;5050964;28;20497;-81
2023/08/18 08:54:11;;;;;;;5.93;5.10;;;;;;;;;;5055352;28;20414;-81
2023/08/18 08:56:38;;;;;;;5.93;5.43;;;;;;;;;;5055899;28;20403;-82
2023/08/18 08:59:04;;;;;;;5.70;5.20;;;;;;;;;;5052640;28;20415;-82
2023/08/18 09:01:30;;;;;;;5.40;4.73;;;;;;;;;;5055822;28;20405;-82
2023/08/18 09:03:56;;;;;;;6.90;5.80;;;;;;;;;;5055568;28;20458;-82
2023/08/18 09:06:23;;;;;;;8.17;5.87;;;;;;;;;;5055678;28;20443;-82
2023/08/18 09:08:49;;;;;;;7.53;6.37;;;;;;;;;;5052708;28;20482;-81
2023/08/18 09:11:15;;;;;;;7.03;5.23;;;;;;;;;;5052827;28;20985;-83
2023/08/18 09:13:42;;;;;;;8.30;5.77;;;;;;;;;;5055489;28;20470;-82
2023/08/18 09:16:08;;;;;;;6.20;4.87;;;;;;;;;;5055408;28;20428;-82
2023/08/18 09:18:34;;;;;;;7.90;4.80;;;;;;;;;;5052718;28;20502;-82
2023/08/18 09:21:00;;;;;;;6.97;5.90;;;;;;;;;;5055515;28;20765;-83
2023/08/18 09:23:27;;;;;;;7.90;4.50;;;;;;;;;;5060615;28;20424;-83
2023/08/18 09:25:57;;;;;;;6.30;4.63;;;;;;;;;;5055053;28;20408;-81
2023/08/18 09:28:23;;;;;;;3.83;3.40;;;;;;;;;;5073026;28;21007;-83
2023/08/18 09:30:49;;;;;;;7.77;4.57;;;;;;;;;;5073218;28;20927;-84
2023/08/18 09:33:15;;;;;;;5.07;4.53;;;;;;;;;;5074565;28;20419;-83
2023/08/18 09:35:41;;;;;;;5.30;3.53;;;;;;;;;;5073306;28;20956;-83
2023/08/18 09:38:12;;;;;;;4.27;3.87;;;;;;;;;;5074193;28;20411;-84
2023/08/18 09:40:37;;;;;;;4.93;4.53;;;;;;;;;;5074467;28;20243;-84
2023/08/18 09:43:06;;;;;;;4.77;3.13;;;;;;;;;;5074405;28;20511;-83
2023/08/18 09:45:33;;;;;;;3.43;3.13;;;;;;;;;;5075480;28;20527;-84
2023/08/18 09:48:10;;;;;;;4.50;4.07;;;;;;;;;;5073796;28;21005;-83
2023/08/18 09:50:36;;;;;;;6.63;4.20;;;;;;;;;;5075367;28;20404;-83
2023/08/18 09:53:03;;;;;;;3.13;2.93;;;;;;;;;;5074926;28;20410;-84
2023/08/18 09:55:32;;;;;;;6.83;3.30;;;;;;;;;;5075202;28;20465;-83
2023/08/18 09:58:04;;;;;;;4.70;3.70;;;;;;;;;;5054881;28;20420;-84
2023/08/18 10:00:31;;;;;;;4.17;3.20;;;;;;;;;;5036563;28;20468;-83
2023/08/18 10:02:58;;;;;;;6.90;4.70;;;;;;;;;;5034893;28;20465;-83
2023/08/18 10:05:24;;;;;;;3.57;3.13;;;;;;;;;;5034914;28;20921;-83
2023/08/18 10:07:51;;;;;;;3.57;3.13;;;;;;;;;;5033341;28;20464;-83
2023/08/18 10:10:17;;;;;;;5.87;3.10;;;;;;;;;;5034952;28;20428;-83
2023/08/18 10:12:43;;;;;;;4.13;3.10;;;;;;;;;;5034965;28;20488;-84
2023/08/18 10:15:10;;;;;;;3.60;3.20;;;;;;;;;;5033639;28;20431;-83
2023/08/18 10:17:36;;;;;;;5.13;3.63;;;;;;;;;;5033558;28;20516;-85
2023/08/18 10:20:03;;;;;;;3.40;3.10;;;;;;;;;;5034891;28;20456;-85
2023/08/18 10:22:30;;;;;;;4.00;3.70;;;;;;;;;;5034410;28;20182;-84
2023/08/18 10:24:56;;;;;;;4.50;3.80;;;;;;;;;;5034630;28;20416;-83
2023/08/18 10:27:25;;;;;;;3.70;3.30;;;;;;;;;;5034551;28;20908;-82
2023/08/18 10:29:52;;;;;;;4.10;3.70;;;;;;;;;;5034699;28;20913;-84
2023/08/18 10:32:18;;;;;;;3.93;3.50;;;;;;;;;;5034493;28;20409;-83
2023/08/18 10:34:44;;;;;;;3.30;3.00;;;;;;;;;;5034520;28;20504;-83
2023/08/18 10:37:15;;;;;;;4.50;3.30;;;;;;;;;;5034332;28;20480;-85
2023/08/18 10:39:41;;;;;;;4.80;3.33;;;;;;;;;;5048107;28;20180;-88
2023/08/18 10:42:07;;;;;;;4.60;3.50;;;;;;;;;;5072265;28;20406;-85
2023/08/18 10:44:34;;;;;;;3.70;3.40;;;;;;;;;;5071934;28;20468;-86
2023/08/18 10:47:02;;;;;;;3.90;3.60;;;;;;;;;;5073185;28;20415;-86
2023/08/18 10:49:28;;;;;;;4.10;3.10;;;;;;;;;;5073089;28;20588;-86
2023/08/18 10:51:54;;;;;;;4.60;3.60;;;;;;;;;;5063430;28;20396;-83
2023/08/18 10:54:22;;;;;;;4.83;4.27;;;;;;;;;;4972929;28;20466;-84
2023/08/18 10:56:48;;;;;;;5.00;4.50;;;;;;;;;;4974106;28;20174;-84
2023/08/18 10:59:14;;;;;;;4.40;3.30;;;;;;;;;;4972505;28;20916;-83
2023/08/18 11:01:42;;;;;;;4.20;3.80;;;;;;;;;;4973704;28;20238;-84
2023/08/18 11:04:09;;;;;;;5.20;3.57;;;;;;;;;;4974217;28;20869;-86
2023/08/18 11:06:35;;;;;;;4.40;3.13;;;;;;;;;;4974063;28;20499;-84
2023/08/18 11:09:04;;;;;;;4.60;3.77;;;;;;;;;;4969217;28;20515;-86
2023/08/18 11:11:30;;;;;;;3.80;3.20;;;;;;;;;;4973228;28;20183;-86
2023/08/18 11:13:56;;;;;;;3.97;3.67;;;;;;;;;;4972108;28;20462;-85
2023/08/18 11:16:23;;;;;;;4.50;4.00;;;;;;;;;;4973538;28;20175;-86
2023/08/18 11:18:51;;;;;;;4.53;3.67;;;;;;;;;;4973686;28;20211;-86
2023/08/18 11:21:18;;;;;;;3.93;3.57;;;;;;;;;;4973859;28;20404;-87
2023/08/18 11:23:43;;;;;;;4.63;3.80;;;;;;;;;;4973439;28;20407;-86
2023/08/18 11:26:10;;;;;;;5.67;4.17;;;;;;;;;;4973677;28;20903;-86
2023/08/18 11:28:35;;;;;;;5.30;3.67;;;;;;;;;;4973659;28;20179;-86
2023/08/18 11:31:08;;;;;;;3.90;3.60;;;;;;;;;;4972419;28;20423;-87
2023/08/18 11:33:34;;;;;;;3.20;3.00;;;;;;;;;;4973784;28;20215;-86
2023/08/18 11:36:00;;;;;;;4.10;3.70;;;;;;;;;;4973736;28;20454;-86
2023/08/18 11:38:26;;;;;;;4.07;3.67;;;;;;;;;;4973053;28;20506;-84
2023/08/18 11:40:52;;;;;;;3.23;3.03;;;;;;;;;;4973675;28;20630;-84
2023/08/18 11:43:21;;;;;;;4.07;3.70;;;;;;;;;;4973645;28;20164;-84
2023/08/18 11:45:47;;;;;;;4.23;3.60;;;;;;;;;;4973487;28;20170;-84
2023/08/18 11:48:13;;;;;;;3.70;3.50;;;;;;;;;;4971449;28;20795;-84
2023/08/18 11:50:42;;;;;;;3.60;3.40;;;;;;;;;;4973210;28;20192;-84
2023/08/18 11:53:11;;;;;;;5.13;3.90;;;;;;;;;;4969956;28;21007;-83
2023/08/18 11:55:42;;;;;;;4.00;3.70;;;;;;;;;;4972960;28;20968;-84
2023/08/18 11:58:10;;;;;;;5.00;3.90;;;;;;;;;;4971887;28;20464;-84
2023/08/18 12:00:37;;;;;;;4.37;3.97;;;;;;;;;;4972710;28;20439;-84
2023/08/18 12:03:04;;;;;;;4.07;3.53;;;;;;;;;;4987771;28;20553;-85
2023/08/18 12:05:31;;;;;;;4.23;3.80;;;;;;;;;;4972759;28;20515;-83
2023/08/18 12:07:58;;;;;;;3.97;3.67;;;;;;;;;;4984029;28;20424;-85
2023/08/18 12:10:27;;;;;;;4.27;3.97;;;;;;;;;;4959966;28;20455;-83
2023/08/18 12:12:53;;;;;;;3.80;3.30;;;;;;;;;;4970318;28;20427;-85
2023/08/18 12:15:21;;;;;;;4.43;3.80;;;;;;;;;;4992950;22;20496;-82
2023/08/18 12:17:47;;;;;;;3.70;3.10;;;;;;;;;;4934261;29;20588;-80
2023/08/18 12:20:13;;;;;;;3.80;3.40;;;;;;;;;;4934296;29;20880;-81
2023/08/18 12:22:39;;;;;;;4.00;3.70;;;;;;;;;;4934060;29;20501;-84
2023/08/18 12:25:05;;;;;;;3.77;3.47;;;;;;;;;;4934354;29;20181;-82
2023/08/18 12:27:33;;;;;;;4.33;3.80;;;;;;;;;;4951500;29;20425;-82
2023/08/18 12:29:59;;;;;;;4.30;4.00;;;;;;;;;;4953471;29;20743;-81
2023/08/18 12:32:25;;;;;;;4.10;3.70;;;;;;;;;;4967145;28;20446;-79
2023/08/18 12:34:51;;;;;;;4.13;3.73;;;;;;;;;;4953260;29;20187;-80
2023/08/18 12:37:19;;;;;;;4.10;3.80;;;;;;;;;;4967956;28;20425;-79
2023/08/18 12:39:46;;;;;;;4.40;4.00;;;;;;;;;;4957837;28;20197;-81
2023/08/18 12:42:12;;;;;;;4.13;3.83;;;;;;;;;;4934264;29;20444;-78
2023/08/18 12:44:38;;;;;;;4.20;3.90;;;;;;;;;;4948522;28;21091;-84
2023/08/18 12:47:07;;;;;;;5.03;3.60;;;;;;;;;;4948827;28;20177;-83
2023/08/18 12:49:33;;;;;;;4.30;3.90;;;;;;;;;;4934182;29;20191;-83
2023/08/18 12:51:59;;;;;;;3.97;3.67;;;;;;;;;;4933778;29;20405;-80
2023/08/18 12:54:26;;;;;;;4.50;4.20;;;;;;;;;;4934085;29;20922;-81
2023/08/18 12:56:52;;;;;;;4.60;4.20;;;;;;;;;;4934091;29;20850;-80
2023/08/18 12:59:17;;;;;;;5.13;4.07;;;;;;;;;;4948548;29;20555;-82
2023/08/18 13:01:43;;;;;;;4.20;3.83;;;;;;;;;;4934049;29;20170;-80
2023/08/18 13:04:12;;;;;;;4.10;3.80;;;;;;;;;;4933674;29;20173;-79
2023/08/18 13:06:38;;;;;;;3.97;3.67;;;;;;;;;;4933842;29;20197;-81
2023/08/18 13:09:04;;;;;;;4.60;4.30;;;;;;;;;;4947771;28;20429;-80
2023/08/18 13:11:33;;;;;;;5.40;4.00;;;;;;;;;;4941884;29;20448;-83
2023/08/18 13:13:59;;;;;;;4.33;4.03;;;;;;;;;;4952623;28;20507;-85
2023/08/18 13:16:25;;;;;;;3.77;3.53;;;;;;;;;;4966116;28;20478;-84
2023/08/18 13:18:51;;;;;;;4.73;4.43;;;;;;;;;;4969975;28;20988;-84
2023/08/18 13:21:17;;;;;;;4.37;3.97;;;;;;;;;;4956582;29;20179;-85
2023/08/18 13:23:43;;;;;;;5.40;4.93;;;;;;;;;;4956236;28;20176;-84
2023/08/18 13:26:09;;;;;;;4.97;4.57;;;;;;;;;;4953400;28;20447;-83
2023/08/18 13:28:35;;;;;;;4.17;3.87;;;;;;;;;;4936373;29;20196;-85
2023/08/18 13:31:01;;;;;;;4.40;4.00;;;;;;;;;;4936025;29;20176;-87
2023/08/18 13:33:26;;;;;;;5.10;4.70;;;;;;;;;;4936698;29;20180;-86
2023/08/18 13:35:52;;;;;;;4.43;4.13;;;;;;;;;;4936957;29;20181;-86
2023/08/18 13:38:18;;;;;;;7.03;5.03;;;;;;;;;;4935711;29;20566;-87
2023/08/18 13:40:46;;;;;;;3.90;3.60;;;;;;;;;;4954456;29;20585;-86
2023/08/18 13:43:12;;;;;;;5.40;5.00;;;;;;;;;;4956272;29;20440;-85
2023/08/18 13:45:38;;;;;;;5.17;4.73;;;;;;;;;;4955893;28;20409;-85
2023/08/18 13:48:04;;;;;;;7.40;4.90;;;;;;;;;;4955227;29;20408;-84
2023/08/18 13:50:30;;;;;;;5.50;5.10;;;;;;;;;;4950453;28;20181;-84
2023/08/18 13:52:56;;;;;;;6.00;5.43;;;;;;;;;;4935850;29;20429;-81
2023/08/18 13:55:23;;;;;;;4.93;4.40;;;;;;;;;;4937582;29;20598;-81
2023/08/18 13:57:49;;;;;;;5.17;4.77;;;;;;;;;;4936220;29;21112;-80
2023/08/18 14:00:15;;;;;;;5.47;5.07;;;;;;;;;;4936980;29;20433;-80
2023/08/18 14:02:41;;;;;;;6.10;5.50;;;;;;;;;;4936170;29;20181;-80
2023/08/18 14:05:09;;;;;;;5.70;5.20;;;;;;;;;;4937483;29;20882;-82
2023/08/18 14:07:35;;;;;;;5.63;5.23;;;;;;;;;;4936442;29;20428;-80
2023/08/18 14:10:01;;;;;;;5.23;4.83;;;;;;;;;;4937219;29;20413;-81
2023/08/18 14:12:30;;;;;;;5.90;5.40;;;;;;;;;;4937150;29;20485;-80
2023/08/18 14:14:56;;;;;;;5.67;5.27;;;;;;;;;;4951900;29;20281;-82
2023/08/18 14:17:35;;;;;;;6.20;5.60;;;;;;;;;;4936692;29;20437;-82
2023/08/18 14:20:05;;;;;;;6.10;5.50;;;;;;;;;;4935825;29;20193;-84
2023/08/18 14:22:32;;;;;;;6.47;5.87;;;;;;;;;;4936501;29;20444;-81
2023/08/18 14:24:58;;;;;;;7.70;6.90;;;;;;;;;;4936957;29;20417;-84
2023/08/18 14:27:27;;;;;;;9.50;6.23;;;;;;;;;;4937246;29;20177;-81
2023/08/18 14:29:53;;;;;;;6.23;5.63;;;;;;;;;;4936744;29;20181;-81
2023/08/18 14:32:18;;;;;;;7.00;6.40;;;;;;;;;;4936831;29;20418;-81
2023/08/18 14:34:47;;;;;;;6.50;6.00;;;;;;;;;;4936898;29;20178;-81
2023/08/18 14:37:13;;;;;;;7.07;6.37;;;;;;;;;;4936585;29;20173;-81
2023/08/18 14:39:39;;;;;;;7.37;6.87;;;;;;;;;;4935577;29;20468;-82